Time;durP1;ratioP1;P1;durP2;ratioP2;P2;SDS_P1;SDS_P2;PMS_P1;PMS_P2;Temp;Humidity;BMP_temperature;BMP_pressure;BME280_temperature;BME280_humidity;BME280_pressure;Samples;Min_cycle;Max_cycle;Signal;HPM_P1;HPM_P2
2021/05/03 00:01:52;;;;;;;3.27;1.20;;;8.60;66.40;;;;;;4950721;29;20207;-80
2021/05/03 00:04:19;;;;;;;3.15;1.10;;;8.60;66.70;;;;;;4984271;28;20933;-80
2021/05/03 00:06:45;;;;;;;1.88;1.20;;;8.50;66.50;;;;;;4936504;29;20185;-80
2021/05/03 00:09:10;;;;;;;2.88;1.13;;;8.50;66.70;;;;;;4949685;29;20189;-80
2021/05/03 00:11:36;;;;;;;3.60;1.53;;;8.50;66.90;;;;;;4948985;29;20657;-80
2021/05/03 00:14:03;;;;;;;2.70;0.93;;;8.40;67.00;;;;;;4944524;29;20166;-80
2021/05/03 00:16:29;;;;;;;3.40;1.10;;;8.40;67.30;;;;;;4950833;29;20185;-80
2021/05/03 00:18:55;;;;;;;3.20;1.40;;;8.40;67.40;;;;;;4973144;28;20203;-80
2021/05/03 00:21:21;;;;;;;5.60;1.20;;;8.30;67.20;;;;;;4958036;29;20200;-80
2021/05/03 00:23:47;;;;;;;2.58;1.17;;;8.30;67.70;;;;;;4970314;23;20553;-75
2021/05/03 00:26:14;;;;;;;2.78;1.33;;;8.30;67.80;;;;;;5004894;28;20213;-75
2021/05/03 00:28:43;;;;;;;2.42;1.33;;;8.30;68.30;;;;;;4987694;28;20214;-75
2021/05/03 00:31:09;;;;;;;5.43;1.00;;;8.30;68.80;;;;;;4994101;28;20175;-74
2021/05/03 00:33:35;;;;;;;3.15;1.20;;;8.20;68.50;;;;;;4992266;28;20178;-75
2021/05/03 00:36:01;;;;;;;3.60;1.57;;;8.20;68.50;;;;;;4993307;28;20203;-74
2021/05/03 00:38:27;;;;;;;2.05;1.00;;;8.20;69.00;;;;;;4975829;28;20669;-75
2021/05/03 00:40:53;;;;;;;2.55;1.08;;;8.20;68.90;;;;;;4976120;28;20584;-74
2021/05/03 00:43:20;;;;;;;1.80;1.07;;;8.10;69.00;;;;;;4993289;28;20198;-74
2021/05/03 00:45:50;;;;;;;1.45;1.10;;;8.10;69.40;;;;;;4993169;28;20697;-74
2021/05/03 00:48:16;;;;;;;1.60;1.10;;;8.10;69.80;;;;;;4993000;28;20543;-74
2021/05/03 00:50:43;;;;;;;4.60;1.48;;;8.00;69.80;;;;;;4959702;28;20175;-75
2021/05/03 00:53:10;;;;;;;4.50;1.40;;;8.00;70.10;;;;;;4993151;28;20258;-75
2021/05/03 00:55:35;;;;;;;2.30;1.15;;;8.00;71.30;;;;;;4975422;28;20293;-75
2021/05/03 00:58:05;;;;;;;2.17;1.20;;;7.90;70.10;;;;;;4992855;28;20262;-75
2021/05/03 01:00:32;;;;;;;1.70;1.40;;;7.90;70.80;;;;;;4975533;28;20574;-75
2021/05/03 01:02:59;;;;;;;2.25;1.25;;;7.90;71.20;;;;;;4975701;28;20171;-75
2021/05/03 01:05:28;;;;;;;2.15;1.13;;;7.80;71.00;;;;;;4975558;28;20203;-75
2021/05/03 01:07:55;;;;;;;1.70;1.23;;;7.80;71.30;;;;;;4959092;28;20582;-75
2021/05/03 01:10:21;;;;;;;5.32;1.40;;;7.80;71.70;;;;;;4975686;28;20545;-75
2021/05/03 01:12:46;;;;;;;2.50;1.40;;;7.80;72.30;;;;;;4975598;28;20167;-75
2021/05/03 01:15:22;;;;;;;2.30;1.63;;;7.80;72.60;;;;;;4959054;28;20215;-75
2021/05/03 01:18:02;;;;;;;3.35;1.52;;;7.80;73.50;;;;;;4992445;28;20177;-75
2021/05/03 01:20:30;;;;;;;3.85;1.50;;;7.80;74.10;;;;;;4975512;28;20608;-75
2021/05/03 01:22:58;;;;;;;1.85;1.38;;;7.80;73.60;;;;;;4992738;28;20163;-75
2021/05/03 01:25:30;;;;;;;2.20;1.38;;;7.70;73.40;;;;;;4992388;28;20210;-75
2021/05/03 01:27:58;;;;;;;2.33;1.55;;;7.70;73.90;;;;;;4992333;28;20624;-75
2021/05/03 01:30:39;;;;;;;2.10;1.90;;;7.70;74.20;;;;;;4974428;28;20986;-75
2021/05/03 01:33:06;;;;;;;2.17;1.80;;;7.70;75.70;;;;;;4958884;28;20174;-75
2021/05/03 01:35:33;;;;;;;1.90;1.52;;;7.70;74.80;;;;;;4974835;28;20617;-75
2021/05/03 01:38:00;;;;;;;3.17;1.55;;;7.70;75.20;;;;;;4974640;28;20190;-75
2021/05/03 01:40:29;;;;;;;4.95;1.60;;;7.70;75.20;;;;;;4958988;28;20175;-76
2021/05/03 01:42:55;;;;;;;1.70;1.40;;;7.70;75.80;;;;;;4974917;28;20241;-75
2021/05/03 01:45:27;;;;;;;4.70;2.10;;;7.70;75.60;;;;;;4958478;28;20194;-75
2021/05/03 01:47:54;;;;;;;2.30;1.48;;;7.70;76.70;;;;;;4991900;28;20562;-75
2021/05/03 01:50:21;;;;;;;4.38;3.80;;;7.70;76.30;;;;;;4992524;28;20527;-74
2021/05/03 01:52:49;;;;;;;2.22;1.50;;;7.70;76.30;;;;;;4974849;28;20539;-75
2021/05/03 01:55:16;;;;;;;2.55;1.70;;;7.70;76.30;;;;;;4958547;28;20210;-75
2021/05/03 01:57:42;;;;;;;1.85;1.65;;;7.60;76.30;;;;;;4992210;28;20175;-76
2021/05/03 02:00:11;;;;;;;2.33;1.83;;;7.60;76.70;;;;;;4992260;28;20254;-75
2021/05/03 02:02:36;;;;;;;2.30;1.70;;;7.60;77.10;;;;;;4958761;28;20567;-76
2021/05/03 02:05:03;;;;;;;1.90;1.33;;;7.60;77.20;;;;;;4992046;28;20191;-75
2021/05/03 02:07:29;;;;;;;2.10;1.73;;;7.60;77.10;;;;;;4974746;28;20586;-75
2021/05/03 02:09:55;;;;;;;4.30;2.27;;;7.60;77.40;;;;;;4992174;28;20182;-74
2021/05/03 02:12:20;;;;;;;5.50;2.23;;;7.60;77.50;;;;;;4974745;28;20670;-76
2021/05/03 02:14:46;;;;;;;3.00;2.00;;;7.60;77.80;;;;;;4958356;28;20207;-75
2021/05/03 02:17:12;;;;;;;3.00;1.70;;;7.50;77.70;;;;;;4974354;28;20170;-75
2021/05/03 02:19:38;;;;;;;3.10;1.80;;;7.50;77.70;;;;;;4974728;28;20668;-76
2021/05/03 02:22:04;;;;;;;3.40;1.70;;;7.50;77.90;;;;;;4974618;28;20179;-75
2021/05/03 02:24:31;;;;;;;3.35;1.83;;;7.50;78.10;;;;;;4991918;28;20618;-75
2021/05/03 02:26:56;;;;;;;2.97;1.65;;;7.50;78.20;;;;;;4991723;28;20171;-75
2021/05/03 02:29:22;;;;;;;3.13;1.80;;;7.50;78.30;;;;;;4958636;28;20532;-75
2021/05/03 02:31:48;;;;;;;2.43;1.70;;;7.40;78.40;;;;;;4974597;28;20181;-75
2021/05/03 02:34:14;;;;;;;2.60;1.93;;;7.40;78.80;;;;;;4974430;28;20606;-75
2021/05/03 02:36:40;;;;;;;2.27;1.90;;;7.40;79.20;;;;;;4991637;28;20519;-76
2021/05/03 02:39:06;;;;;;;2.80;2.10;;;7.30;79.20;;;;;;4974564;28;20582;-75
2021/05/03 02:41:32;;;;;;;2.67;1.73;;;7.30;79.30;;;;;;4993720;28;20925;-75
2021/05/03 02:44:00;;;;;;;2.10;1.65;;;7.30;79.20;;;;;;4995338;28;20374;-75
2021/05/03 02:46:27;;;;;;;2.65;1.75;;;7.20;79.60;;;;;;4977621;28;20247;-75
2021/05/03 02:48:53;;;;;;;4.05;2.22;;;7.20;79.90;;;;;;4995523;28;20654;-74
2021/05/03 02:51:19;;;;;;;3.03;2.72;;;7.20;80.30;;;;;;4995391;28;20175;-74
2021/05/03 02:53:45;;;;;;;3.73;1.93;;;7.10;80.50;;;;;;4978023;28;20190;-75
2021/05/03 02:56:10;;;;;;;3.40;1.70;;;7.10;81.00;;;;;;4995284;28;20199;-74
2021/05/03 02:58:36;;;;;;;2.00;1.80;;;7.10;81.30;;;;;;4996318;28;20167;-74
2021/05/03 03:01:02;;;;;;;2.70;2.17;;;7.10;81.40;;;;;;4978081;28;20159;-73
2021/05/03 03:03:28;;;;;;;2.37;2.13;;;7.10;81.80;;;;;;4978030;28;20167;-74
2021/05/03 03:05:53;;;;;;;2.17;1.90;;;7.10;82.20;;;;;;4978126;28;20627;-74
2021/05/03 03:08:19;;;;;;;2.63;1.60;;;7.10;82.30;;;;;;4977493;28;20185;-74
2021/05/03 03:10:45;;;;;;;3.63;2.27;;;7.10;83.50;;;;;;4995005;28;21241;-75
2021/05/03 03:13:11;;;;;;;2.60;2.40;;;7.10;82.80;;;;;;4977652;28;20167;-75
2021/05/03 03:15:37;;;;;;;2.40;2.20;;;7.10;82.90;;;;;;4977724;28;20978;-76
2021/05/03 03:18:03;;;;;;;4.20;2.43;;;7.20;83.20;;;;;;4977315;28;20645;-76
2021/05/03 03:20:29;;;;;;;3.70;2.67;;;7.10;83.30;;;;;;4977525;28;20574;-76
2021/05/03 03:22:55;;;;;;;6.35;2.05;;;7.10;83.20;;;;;;4977459;28;20175;-75
2021/05/03 03:25:22;;;;;;;3.90;2.53;;;7.10;83.40;;;;;;4994775;28;20210;-75
2021/05/03 03:27:48;;;;;;;2.88;2.30;;;7.10;83.60;;;;;;4994676;28;20173;-75
2021/05/03 03:30:16;;;;;;;3.95;2.80;;;7.10;83.90;;;;;;4977668;28;20194;-75
2021/05/03 03:32:44;;;;;;;15.90;5.85;;;7.10;84.30;;;;;;4995352;28;20171;-75
2021/05/03 03:35:15;;;;;;;3.13;1.92;;;7.10;84.20;;;;;;4977259;28;20620;-75
2021/05/03 03:37:41;;;;;;;2.25;2.00;;;7.10;84.30;;;;;;4994271;28;20183;-75
2021/05/03 03:40:08;;;;;;;3.35;2.90;;;7.00;83.90;;;;;;4994483;28;20171;-75
2021/05/03 03:42:34;;;;;;;3.15;2.60;;;7.00;83.80;;;;;;4977766;28;20538;-75
2021/05/03 03:45:00;;;;;;;2.60;2.40;;;6.90;83.80;;;;;;4995321;28;20187;-75
2021/05/03 03:47:26;;;;;;;3.17;2.85;;;6.80;84.10;;;;;;4994991;28;20242;-76
2021/05/03 03:49:52;;;;;;;2.58;2.38;;;6.80;84.60;;;;;;4995002;28;20175;-75
2021/05/03 03:52:19;;;;;;;4.50;2.77;;;6.80;85.00;;;;;;4994716;28;20175;-75
2021/05/03 03:54:44;;;;;;;5.90;2.33;;;6.70;85.30;;;;;;4994285;28;21045;-75
2021/05/03 03:57:11;;;;;;;4.63;2.93;;;6.70;86.00;;;;;;4978679;28;20253;-75
2021/05/03 03:59:40;;;;;;;3.20;2.58;;;6.70;86.50;;;;;;4960607;28;20167;-77
2021/05/03 04:02:07;;;;;;;4.90;2.97;;;6.70;86.50;;;;;;4995243;28;20179;-76
2021/05/03 04:04:34;;;;;;;2.45;2.25;;;6.60;86.40;;;;;;4977247;28;20189;-76
2021/05/03 04:07:22;;;;;;;4.00;2.67;;;6.60;86.60;;;;;;4994210;28;20163;-76
2021/05/03 04:12:49;;;;;;;5.85;2.60;;;6.50;86.40;;;;;;4976592;28;20535;-76
2021/05/03 04:26:00;;;;;;;3.30;2.97;;;6.40;88.20;;;;;;4976380;28;20314;-74
2021/05/03 04:28:26;;;;;;;4.45;3.42;;;6.40;88.70;;;;;;4977966;28;20271;-74
2021/05/03 04:30:52;;;;;;;2.90;2.63;;;6.50;89.20;;;;;;5000584;28;20195;-75
2021/05/03 04:33:17;;;;;;;6.43;2.90;;;6.50;89.50;;;;;;4997582;28;20695;-75
2021/05/03 04:35:43;;;;;;;3.43;2.50;;;6.50;89.90;;;;;;4995791;28;20230;-75
2021/05/03 04:38:12;;;;;;;3.40;2.80;;;6.60;90.30;;;;;;4995510;28;20562;-74
2021/05/03 04:40:38;;;;;;;3.17;2.33;;;6.60;90.60;;;;;;4995916;28;20160;-76
2021/05/03 04:43:03;;;;;;;3.80;2.60;;;6.70;90.50;;;;;;4978062;28;20631;-75
2021/05/03 04:45:29;;;;;;;2.70;2.50;;;6.70;90.60;;;;;;4999977;28;20218;-75
2021/05/03 04:47:55;;;;;;;4.07;3.10;;;6.80;90.80;;;;;;4998056;28;20708;-75
2021/05/03 04:50:20;;;;;;;5.60;3.80;;;6.90;90.90;;;;;;4993617;28;20183;-75
2021/05/03 04:52:46;;;;;;;6.33;3.30;;;6.90;90.80;;;;;;4976457;28;20179;-75
2021/05/03 04:55:12;;;;;;;4.20;3.67;;;7.00;91.10;;;;;;4975915;28;20206;-74
2021/05/03 04:57:38;;;;;;;3.57;2.47;;;7.10;91.20;;;;;;4976002;28;20217;-75
2021/05/03 05:00:05;;;;;;;4.90;3.50;;;7.20;91.40;;;;;;4993414;28;20167;-74
2021/05/03 05:02:30;;;;;;;9.57;4.75;;;7.30;92.00;;;;;;4975638;28;20171;-75
2021/05/03 05:04:57;;;;;;;5.17;4.27;;;7.30;92.00;;;;;;4975628;28;20191;-75
2021/05/03 05:07:23;;;;;;;5.47;3.63;;;7.30;92.60;;;;;;4992756;28;20253;-75
2021/05/03 05:09:48;;;;;;;4.93;4.28;;;7.30;91.90;;;;;;4993011;28;20206;-74
2021/05/03 05:12:14;;;;;;;4.87;3.70;;;7.40;91.90;;;;;;4992773;28;20596;-75
2021/05/03 05:14:40;;;;;;;3.10;2.90;;;7.50;92.10;;;;;;4992558;28;20690;-75
2021/05/03 05:17:06;;;;;;;4.53;3.30;;;7.60;92.20;;;;;;4975308;28;20515;-74
2021/05/03 05:19:32;;;;;;;3.22;2.92;;;7.80;92.30;;;;;;4992654;28;20182;-74
2021/05/03 05:21:58;;;;;;;4.40;3.60;;;8.00;92.20;;;;;;4959026;28;20577;-75
2021/05/03 05:24:23;;;;;;;4.53;3.43;;;8.20;91.90;;;;;;4958924;28;20202;-75
2021/05/03 05:26:49;;;;;;;5.00;3.40;;;8.30;91.80;;;;;;4992258;28;21160;-74
2021/05/03 05:29:15;;;;;;;3.40;3.10;;;8.40;91.50;;;;;;4992564;28;20249;-75
2021/05/03 05:31:41;;;;;;;4.87;3.23;;;8.40;91.40;;;;;;4992435;28;20171;-75
2021/05/03 05:34:07;;;;;;;4.75;3.53;;;8.50;91.30;;;;;;4992537;28;20195;-76
2021/05/03 05:36:32;;;;;;;2.93;2.50;;;8.50;91.30;;;;;;4974503;28;20194;-75
2021/05/03 05:38:59;;;;;;;4.03;3.37;;;8.70;91.30;;;;;;4992415;28;20205;-75
2021/05/03 05:41:26;;;;;;;4.10;3.70;;;8.80;91.20;;;;;;4992344;28;20561;-75
2021/05/03 05:43:52;;;;;;;9.90;3.72;;;9.00;91.20;;;;;;4974853;28;20551;-76
2021/05/03 05:46:18;;;;;;;6.80;2.97;;;9.00;91.10;;;;;;4974617;28;20241;-76
2021/05/03 05:48:46;;;;;;;4.97;3.03;;;9.20;91.10;;;;;;4974749;28;20174;-76
2021/05/03 05:51:12;;;;;;;3.28;3.00;;;9.30;91.00;;;;;;4992036;28;20167;-76
2021/05/03 05:53:38;;;;;;;6.40;3.28;;;9.40;91.00;;;;;;4974788;28;20174;-75
2021/05/03 05:56:04;;;;;;;5.37;3.10;;;9.60;90.90;;;;;;4974467;28;20264;-76
2021/05/03 05:58:32;;;;;;;3.40;2.90;;;9.70;90.60;;;;;;4958202;28;20590;-75
2021/05/03 06:00:59;;;;;;;5.22;3.30;;;9.80;90.70;;;;;;4974734;28;20981;-75
2021/05/03 06:03:25;;;;;;;3.80;3.28;;;10.00;90.00;;;;;;4974551;28;20170;-75
2021/05/03 06:05:51;;;;;;;3.83;2.83;;;10.20;89.90;;;;;;4974315;28;20195;-74
2021/05/03 06:08:17;;;;;;;4.83;3.13;;;10.20;88.90;;;;;;4974334;28;20167;-75
2021/05/03 06:10:43;;;;;;;17.70;4.27;;;10.40;88.80;;;;;;4978721;28;20183;-75
2021/05/03 06:13:08;;;;;;;9.90;4.40;;;10.40;88.00;;;;;;4973734;28;20732;-74
2021/05/03 06:15:34;;;;;;;5.80;3.87;;;10.40;87.20;;;;;;4992154;28;20210;-74
2021/05/03 06:18:00;;;;;;;5.57;3.63;;;10.50;87.40;;;;;;4995516;28;20523;-74
2021/05/03 06:20:26;;;;;;;4.28;3.75;;;10.60;87.30;;;;;;4995760;28;20206;-74
2021/05/03 06:23:11;;;;;;;3.40;2.33;;;10.70;86.80;;;;;;4995774;28;20568;-74
2021/05/03 06:25:40;;;;;;;3.25;2.95;;;10.80;86.40;;;;;;4995079;28;21041;-75
2021/05/03 06:28:07;;;;;;;3.88;2.85;;;11.00;86.70;;;;;;4980247;28;20207;-75
2021/05/03 06:30:33;;;;;;;3.20;2.90;;;11.30;88.40;;;;;;5000969;28;20175;-75
2021/05/03 06:33:00;;;;;;;4.40;4.00;;;11.70;89.00;;;;;;4994154;28;20706;-75
2021/05/03 06:35:26;;;;;;;4.15;3.50;;;12.40;85.20;;;;;;5011296;28;20230;-75
2021/05/03 06:37:52;;;;;;;6.03;3.30;;;12.60;86.00;;;;;;4997010;28;20227;-75
2021/05/03 06:40:19;;;;;;;3.50;2.40;;;12.80;85.30;;;;;;4989616;28;20617;-75
2021/05/03 06:42:47;;;;;;;4.65;2.83;;;13.30;86.60;;;;;;4990058;28;20244;-75
2021/05/03 06:45:13;;;;;;;3.60;2.95;;;13.90;86.70;;;;;;4993035;28;20618;-76
2021/05/03 06:47:38;;;;;;;5.10;2.60;;;14.50;87.10;;;;;;4993734;28;20174;-75
2021/05/03 06:50:06;;;;;;;4.35;3.95;;;15.10;85.40;;;;;;5005420;28;20746;-75
2021/05/03 06:52:33;;;;;;;3.30;3.00;;;15.60;74.80;;;;;;4974939;28;20182;-76
2021/05/03 06:54:59;;;;;;;2.87;2.20;;;15.60;77.00;;;;;;4997214;28;21204;-75
2021/05/03 06:57:28;;;;;;;4.03;3.63;;;15.80;77.50;;;;;;4976101;28;21346;-75
2021/05/03 06:59:53;;;;;;;2.60;2.40;;;16.30;71.70;;;;;;5000710;28;20678;-75
2021/05/03 07:02:23;;;;;;;3.50;2.60;;;16.70;74.70;;;;;;4976989;28;21213;-75
2021/05/03 07:04:49;;;;;;;3.27;2.77;;;17.00;75.20;;;;;;4977521;28;20601;-76
2021/05/03 07:07:15;;;;;;;3.80;2.50;;;17.40;75.10;;;;;;4977727;28;20587;-75
2021/05/03 07:09:46;;;;;;;2.40;2.10;;;17.90;75.70;;;;;;4994902;28;20248;-75
2021/05/03 07:12:21;;;;;;;2.73;2.47;;;18.60;75.70;;;;;;4977386;28;20182;-75
2021/05/03 07:14:47;;;;;;;3.93;2.83;;;19.40;74.50;;;;;;4994976;28;20625;-75
2021/05/03 07:17:13;;;;;;;3.30;2.10;;;20.10;72.30;;;;;;4994656;28;20657;-75
2021/05/03 07:19:39;;;;;;;3.07;2.77;;;20.90;73.20;;;;;;4994756;28;21048;-74
2021/05/03 07:22:06;;;;;;;3.97;3.58;;;21.50;69.50;;;;;;4993790;28;20701;-74
2021/05/03 07:24:34;;;;;;;6.83;2.70;;;21.90;56.60;;;;;;4996653;28;20209;-74
2021/05/03 07:27:00;;;;;;;4.20;3.53;;;22.10;59.00;;;;;;4994002;28;20558;-74
2021/05/03 07:29:27;;;;;;;4.75;2.97;;;22.30;57.90;;;;;;4992906;28;20698;-74
2021/05/03 07:31:52;;;;;;;4.10;2.60;;;22.10;52.60;;;;;;4994115;28;20635;-75
2021/05/03 07:34:18;;;;;;;4.30;2.40;;;22.20;55.30;;;;;;4992115;28;20608;-75
2021/05/03 07:36:45;;;;;;;4.97;2.20;;;22.40;54.70;;;;;;4996122;28;20209;-75
2021/05/03 07:39:11;;;;;;;4.22;3.00;;;22.80;55.70;;;;;;5013457;28;20767;-75
2021/05/03 07:41:41;;;;;;;3.60;2.20;;;23.40;50.20;;;;;;4996487;28;20569;-75
2021/05/03 07:44:08;;;;;;;2.50;2.13;;;24.00;54.20;;;;;;4996427;28;20612;-74
2021/05/03 07:46:35;;;;;;;5.00;2.60;;;24.70;55.20;;;;;;5013183;28;21060;-74
2021/05/03 07:49:01;;;;;;;4.13;2.40;;;25.20;49.60;;;;;;4990357;28;20245;-74
2021/05/03 07:51:27;;;;;;;3.13;2.30;;;25.80;52.20;;;;;;4998869;28;20659;-73
2021/05/03 07:53:54;;;;;;;3.73;2.17;;;26.10;51.20;;;;;;4979220;28;20961;-74
2021/05/03 07:56:21;;;;;;;2.70;1.83;;;26.20;48.30;;;;;;4960609;28;20645;-75
2021/05/03 07:58:50;;;;;;;4.03;1.97;;;26.40;48.80;;;;;;4977773;28;20582;-78
2021/05/03 08:01:16;;;;;;;3.67;2.27;;;26.90;49.20;;;;;;4994027;28;20574;-78
2021/05/03 08:03:43;;;;;;;3.30;2.70;;;27.50;49.20;;;;;;4997699;28;20706;-77
2021/05/03 08:06:18;;;;;;;4.50;2.20;;;27.70;40.50;;;;;;4994230;28;20204;-76
2021/05/03 08:08:46;;;;;;;2.10;1.50;;;28.30;44.30;;;;;;4976193;28;20617;-76
2021/05/03 08:11:13;;;;;;;3.10;2.10;;;28.90;45.10;;;;;;5000621;23;20679;-77
2021/05/03 08:13:41;;;;;;;2.60;1.80;;;29.40;45.00;;;;;;4948185;28;20708;-77
2021/05/03 08:16:11;;;;;;;3.90;1.50;;;29.90;44.30;;;;;;4947235;29;20699;-77
2021/05/03 08:18:36;;;;;;;3.53;1.70;;;30.30;44.00;;;;;;4937686;29;20958;-77
2021/05/03 08:21:03;;;;;;;2.27;1.70;;;30.80;43.50;;;;;;4955432;28;20587;-76
2021/05/03 08:23:30;;;;;;;2.30;1.47;;;31.00;42.80;;;;;;4955375;29;20176;-77
2021/05/03 08:25:56;;;;;;;3.07;0.93;;;31.30;41.90;;;;;;4958619;29;20655;-78
2021/05/03 08:28:23;;;;;;;2.80;1.20;;;31.40;41.20;;;;;;4958950;28;20616;-78
2021/05/03 08:30:50;;;;;;;2.30;1.13;;;31.40;40.10;;;;;;4958649;28;20208;-78
2021/05/03 08:33:17;;;;;;;1.83;1.30;;;31.60;39.90;;;;;;4962789;28;20590;-75
2021/05/03 08:35:43;;;;;;;1.87;1.00;;;31.60;39.00;;;;;;4965254;28;20596;-72
2021/05/03 08:38:09;;;;;;;2.50;1.60;;;31.70;38.80;;;;;;4955889;28;20663;-72
2021/05/03 08:40:36;;;;;;;1.60;1.37;;;31.90;38.20;;;;;;4957529;28;20619;-74
2021/05/03 08:43:03;;;;;;;4.37;1.10;;;32.00;38.30;;;;;;4943586;28;20579;-74
2021/05/03 08:45:30;;;;;;;1.70;1.00;;;32.10;37.90;;;;;;4953560;29;20612;-73
2021/05/03 08:53:17;;;;;;;3.10;1.33;;;32.60;36.90;;;;;;4954111;29;20921;-74
2021/05/03 08:55:44;;;;;;;1.77;1.40;;;32.70;36.60;;;;;;4953575;29;20568;-74
2021/05/03 08:58:11;;;;;;;4.17;1.57;;;32.70;36.10;;;;;;4935861;29;20616;-74
2021/05/03 09:00:37;;;;;;;1.60;1.07;;;32.60;35.50;;;;;;4958342;28;20608;-74
2021/05/03 09:03:09;;;;;;;1.70;1.10;;;32.60;35.40;;;;;;4955644;29;20624;-74
2021/05/03 09:05:35;;;;;;;1.80;1.27;;;32.60;35.00;;;;;;4954141;29;20635;-74
2021/05/03 09:08:03;;;;;;;2.23;1.20;;;32.40;34.40;;;;;;4937268;29;20615;-74
2021/05/03 09:10:30;;;;;;;4.20;1.75;;;31.90;33.80;;;;;;4952838;29;20876;-74
2021/05/03 09:13:10;;;;;;;2.17;1.10;;;31.00;30.20;;;;;;4952982;28;20172;-74
2021/05/03 09:15:36;;;;;;;1.63;0.90;;;31.10;32.50;;;;;;4936588;29;20591;-74
2021/05/03 09:18:02;;;;;;;2.33;1.60;;;31.10;33.20;;;;;;4954415;29;20604;-74
2021/05/03 09:20:28;;;;;;;2.90;1.23;;;31.20;33.20;;;;;;4955487;28;20658;-74
2021/05/03 09:25:55;;;;;;;3.60;1.70;;;31.60;33.10;;;;;;4925297;29;20647;-74
2021/05/03 09:28:30;;;;;;;3.83;1.80;;;31.90;33.20;;;;;;4957464;29;20699;-74
2021/05/03 09:31:00;;;;;;;2.90;1.30;;;32.20;32.60;;;;;;4937543;29;21012;-75
2021/05/03 09:33:31;;;;;;;2.10;1.60;;;32.10;32.40;;;;;;4937081;29;20604;-75
2021/05/03 09:35:58;;;;;;;1.90;1.50;;;32.10;32.10;;;;;;4953338;29;20564;-75
2021/05/03 09:38:45;;;;;;;2.00;1.10;;;32.30;32.00;;;;;;4955826;28;20667;-74
2021/05/03 09:41:17;;;;;;;2.40;1.70;;;32.40;31.90;;;;;;4970165;28;20721;-74
2021/05/03 09:43:56;;;;;;;2.60;1.80;;;32.30;29.70;;;;;;4953253;29;20180;-74
2021/05/03 09:46:25;;;;;;;3.43;1.97;;;32.30;30.40;;;;;;4953884;29;20620;-74
2021/05/03 09:48:56;;;;;;;2.80;1.77;;;32.40;31.00;;;;;;4953949;29;20696;-74
2021/05/03 09:51:41;;;;;;;2.20;1.77;;;32.50;30.90;;;;;;4954637;28;20684;-74
2021/05/03 09:54:17;;;;;;;4.10;1.40;;;32.40;30.80;;;;;;4954691;29;20636;-74
2021/05/03 09:56:55;;;;;;;2.30;1.77;;;32.30;30.30;;;;;;4952976;29;20590;-75
2021/05/03 09:59:40;;;;;;;2.03;1.77;;;32.20;30.10;;;;;;4953658;29;20572;-74
2021/05/03 10:02:28;;;;;;;2.83;2.37;;;31.70;29.70;;;;;;4952851;28;20611;-74
2021/05/03 10:05:02;;;;;;;2.33;1.83;;;31.30;29.80;;;;;;4935489;29;21242;-73
2021/05/03 10:07:30;;;;;;;4.10;1.73;;;30.90;30.00;;;;;;4932497;29;20581;-74
2021/05/03 10:10:11;;;;;;;2.37;2.17;;;30.40;29.60;;;;;;4956534;28;20805;-75
2021/05/03 10:12:38;;;;;;;2.50;2.23;;;29.70;29.00;;;;;;4933652;29;20577;-76
2021/05/03 10:15:07;;;;;;;2.78;2.10;;;29.10;29.30;;;;;;4936326;29;20715;-75
2021/05/03 10:17:33;;;;;;;2.83;1.40;;;28.50;28.90;;;;;;4938236;28;20600;-75
2021/05/03 10:20:00;;;;;;;2.47;1.90;;;28.60;30.00;;;;;;4951339;28;20592;-75
2021/05/03 10:22:29;;;;;;;4.20;2.30;;;28.70;30.30;;;;;;4949420;29;20764;-74
2021/05/03 10:24:57;;;;;;;2.97;1.83;;;28.60;29.00;;;;;;4953118;28;20192;-74
2021/05/03 10:27:25;;;;;;;2.57;1.70;;;29.10;30.20;;;;;;4952090;29;20592;-74
2021/05/03 10:30:08;;;;;;;2.17;1.73;;;29.60;30.10;;;;;;4935308;28;20639;-74
2021/05/03 10:32:37;;;;;;;1.53;1.30;;;29.90;29.40;;;;;;4933607;28;20576;-74
2021/05/03 10:35:05;;;;;;;3.20;2.33;;;29.70;29.10;;;;;;4952625;29;20603;-74
2021/05/03 10:37:34;;;;;;;4.63;1.90;;;29.40;28.80;;;;;;4952556;29;21009;-75
2021/05/03 10:40:04;;;;;;;1.77;1.43;;;29.10;29.00;;;;;;4940907;28;21060;-75
2021/05/03 10:42:31;;;;;;;3.47;1.83;;;28.80;29.10;;;;;;4952083;29;21062;-75
2021/05/03 10:45:18;;;;;;;2.90;1.40;;;28.20;27.90;;;;;;4952479;28;20208;-76
2021/05/03 10:50:30;;;;;;;2.70;1.80;;;28.00;29.10;;;;;;4952394;28;21165;-74
2021/05/03 10:53:18;;;;;;;2.00;1.53;;;27.80;29.10;;;;;;4953866;28;20587;-76
2021/05/03 10:55:52;;;;;;;2.33;1.50;;;27.60;29.00;;;;;;4962859;28;20594;-75
2021/05/03 10:58:18;;;;;;;3.43;2.00;;;27.30;29.20;;;;;;4954590;28;20735;-76
2021/05/03 11:01:00;;;;;;;2.10;1.80;;;26.50;28.10;;;;;;4936685;28;20739;-76
2021/05/03 11:03:54;;;;;;;3.20;1.50;;;25.90;28.50;;;;;;4945516;28;20246;-75
2021/05/03 11:06:38;;;;;;;2.07;1.67;;;25.70;28.90;;;;;;4955233;28;21447;-75
2021/05/03 11:09:34;;;;;;;1.77;1.37;;;25.50;28.90;;;;;;4965412;28;20580;-76
2021/05/03 11:12:06;;;;;;;2.13;1.50;;;25.30;29.10;;;;;;4957620;28;21242;-75
2021/05/03 11:14:37;;;;;;;7.03;1.80;;;24.90;29.10;;;;;;4970003;28;20606;-76
2021/05/03 11:17:06;;;;;;;1.80;1.60;;;24.60;28.90;;;;;;4973272;28;20686;-76
2021/05/03 11:22:19;;;;;;;1.87;1.30;;;24.20;29.70;;;;;;4939097;29;20618;-76
2021/05/03 11:30:39;;;;;;;1.63;1.53;;;24.50;29.90;;;;;;4879642;29;20623;-76
2021/05/03 11:33:17;;;;;;;1.93;1.27;;;24.50;30.00;;;;;;4939496;28;20603;-77
2021/05/03 11:41:23;;;;;;;2.60;1.20;;;24.20;29.40;;;;;;4981252;28;20607;-77
2021/05/03 11:46:35;;;;;;;2.57;1.80;;;23.40;29.10;;;;;;4974672;28;20629;-76
2021/05/03 11:49:10;;;;;;;2.27;1.90;;;23.00;29.20;;;;;;4974817;28;20564;-77
2021/05/03 11:51:43;;;;;;;3.70;1.97;;;22.50;29.40;;;;;;4957615;28;20602;-77
2021/05/03 11:54:32;;;;;;;3.50;2.40;;;22.10;29.40;;;;;;4975005;28;20662;-77
2021/05/03 11:57:03;;;;;;;2.70;1.90;;;21.70;29.90;;;;;;4974529;28;20594;-77
2021/05/03 11:59:30;;;;;;;3.33;2.23;;;21.20;29.90;;;;;;4975488;28;20682;-78
2021/05/03 12:01:58;;;;;;;4.65;3.03;;;21.00;30.50;;;;;;4976457;28;20711;-76
2021/05/03 12:04:32;;;;;;;4.37;3.97;;;20.90;32.70;;;;;;4977126;28;20172;-78
2021/05/03 12:06:58;;;;;;;3.73;2.37;;;21.10;32.70;;;;;;4980860;28;20567;-77
2021/05/03 12:09:24;;;;;;;2.67;1.60;;;21.40;33.10;;;;;;4943747;28;20629;-77
2021/05/03 12:11:55;;;;;;;3.60;2.53;;;21.70;32.80;;;;;;4974911;28;20199;-78
2021/05/03 12:14:37;;;;;;;3.07;2.40;;;21.90;32.50;;;;;;4978137;28;20633;-78
2021/05/03 12:17:12;;;;;;;2.43;2.00;;;22.10;32.20;;;;;;4978057;28;20602;-78
2021/05/03 12:19:39;;;;;;;3.00;2.60;;;22.30;32.30;;;;;;4962017;28;20723;-79
2021/05/03 12:22:04;;;;;;;2.47;1.80;;;22.40;32.30;;;;;;4979622;28;20204;-78
2021/05/03 12:24:35;;;;;;;3.10;2.10;;;22.60;32.40;;;;;;4973430;28;21307;-78
2021/05/03 12:27:08;;;;;;;1.93;1.50;;;22.60;31.90;;;;;;4977468;28;20238;-78
2021/05/03 12:32:36;;;;;;;2.40;2.10;;;22.60;31.20;;;;;;4982718;23;21099;-78
2021/05/03 12:35:10;;;;;;;2.40;2.10;;;22.50;30.90;;;;;;4963969;28;20744;-78
2021/05/03 12:37:37;;;;;;;2.20;1.93;;;22.20;30.60;;;;;;4978878;28;20711;-76
2021/05/03 12:40:09;;;;;;;2.97;1.63;;;21.70;30.90;;;;;;4962159;28;20609;-77
2021/05/03 12:42:52;;;;;;;2.33;1.30;;;21.60;30.60;;;;;;4981344;28;20597;-78
2021/05/03 12:45:26;;;;;;;2.50;1.70;;;21.40;30.50;;;;;;4958984;28;20772;-77
2021/05/03 12:50:43;;;;;;;1.40;1.13;;;20.30;31.90;;;;;;4993011;28;20195;-77
2021/05/03 12:53:34;;;;;;;2.17;1.20;;;20.30;31.50;;;;;;4994325;28;20571;-77
2021/05/03 12:56:33;;;;;;;1.70;1.40;;;20.30;31.70;;;;;;4993080;28;20693;-77
2021/05/03 12:59:19;;;;;;;1.73;1.30;;;20.30;31.80;;;;;;4975113;28;20598;-76
2021/05/03 13:02:00;;;;;;;3.23;1.20;;;20.50;32.30;;;;;;4992360;28;20646;-76
2021/05/03 13:30:17;;;;;;;1.50;1.07;;;21.30;32.20;;;;;;4978563;28;20950;-77
2021/05/03 13:32:42;;;;;;;2.20;1.30;;;21.20;32.10;;;;;;4969320;28;20949;-77
2021/05/03 13:35:09;;;;;;;1.40;1.00;;;21.10;32.10;;;;;;4978873;28;20571;-77
2021/05/03 13:37:35;;;;;;;1.70;1.10;;;21.00;32.20;;;;;;4944119;28;20247;-77
2021/05/03 13:40:04;;;;;;;1.87;1.07;;;20.90;32.00;;;;;;4930479;28;20674;-77
2021/05/03 13:42:30;;;;;;;2.40;1.50;;;20.70;32.00;;;;;;4958900;28;20958;-78
2021/05/03 13:44:56;;;;;;;1.63;1.20;;;20.60;32.10;;;;;;4957004;28;20626;-76
2021/05/03 13:47:21;;;;;;;1.80;1.53;;;20.40;32.10;;;;;;4973257;28;20168;-76
2021/05/03 13:49:47;;;;;;;1.57;1.00;;;20.30;32.30;;;;;;4983659;28;20194;-77
2021/05/03 13:52:13;;;;;;;1.73;1.33;;;20.20;32.30;;;;;;4982402;28;20213;-77
2021/05/03 13:54:39;;;;;;;3.00;1.70;;;20.20;32.60;;;;;;4972500;28;20737;-82
2021/05/03 13:57:06;;;;;;;1.40;1.10;;;20.20;33.20;;;;;;4961606;28;20190;-78
2021/05/03 13:59:33;;;;;;;1.93;1.20;;;20.20;33.10;;;;;;4955353;28;20577;-77
2021/05/03 14:01:59;;;;;;;1.97;1.00;;;20.20;33.20;;;;;;4955614;28;20611;-80
2021/05/03 14:04:26;;;;;;;2.70;1.30;;;20.20;33.80;;;;;;4956247;28;20726;-81
2021/05/03 14:06:56;;;;;;;2.37;1.37;;;20.30;33.30;;;;;;4955946;28;21269;-80
2021/05/03 14:09:22;;;;;;;3.40;1.73;;;20.30;33.40;;;;;;4955739;28;21049;-80
2021/05/03 14:11:47;;;;;;;3.35;1.40;;;20.30;33.20;;;;;;4955775;28;20746;-80